Rock Creek, Oregon
Current Conditions -  °F | °C
As of 1:53 AM on Saturday 22 Nov 2014 (Local Time) from KHIO Reporting Station
Overcast Overcast  
Wind Chill: 45°   Ceiling: 4200
Heat Index: 47°   Visibility: 9mi
Dew Point: 46°   Wind: 5mph
Humidity: 97%   Direction: 10°N
Pressure: 29.7"   Gusts: NA
Location:  45.5526°N, 122.821°W
Report Text: KHIO 220953Z AUTO 01004KT 9SM BKN042 BKN065 OVC090 08/08 A2970 RMK AO2 RAE13 SLP056 P0001 T00830078
Loading
Personal Weather Stations






























Interactive Weather Map New forecast layout! Learn more

10-Day Weather Forecast

Advertisements
Track Severe Weather on mobile